South End, Vermont
Current Conditions -  °F | °C
As of 1:35 AM on Saturday 29 Nov 2014 (Local Time) from KRUT Reporting Station
Clear Clear  
Wind Chill:   Ceiling: Unl
Heat Index: 12°   Visibility: 10mi
Dew Point:   Wind: 6mph
Humidity: 79%   Direction: 120°ESE
Pressure: 30.19"   Gusts: NA
Location:  43.3492°N, 72.9643°W
Report Text: KRUT 290635Z 12005KT 10SM CLR M11/M14 A3019 RMK AO1
Loading
Personal Weather Stations






























Interactive Weather Map New forecast layout! Learn more

10-Day Weather Forecast

Advertisements
Track Severe Weather on mobile